createdAt,value
2023-04-11T00:01:59.923Z,71.79
2023-04-11T00:05:03.366Z,71.86
2023-04-11T00:08:06.534Z,72.02
2023-04-11T00:11:09.548Z,72.19
2023-04-11T00:14:12.780Z,72.44
2023-04-11T00:20:30.522Z,72.79
2023-04-11T00:23:32.236Z,72.87
2023-04-11T00:26:34.006Z,72.89
2023-04-11T00:29:36.399Z,72.96
2023-04-11T00:32:38.042Z,73.01
2023-04-11T00:35:40.142Z,72.99
2023-04-11T00:38:42.007Z,73.03
2023-04-11T00:41:43.882Z,73.17
2023-04-11T00:44:45.907Z,73.23
2023-04-11T00:47:48.909Z,73.24
2023-04-11T00:50:50.851Z,73.29
2023-04-11T00:53:52.704Z,73.30
2023-04-11T00:56:57.318Z,73.30
2023-04-11T01:00:01.150Z,73.27
2023-04-11T01:03:03.310Z,73.30
2023-04-11T01:06:06.986Z,73.20
2023-04-11T01:09:08.797Z,73.06
2023-04-11T01:12:11.838Z,72.92
2023-04-11T01:15:13.983Z,72.83
2023-04-11T01:18:15.726Z,72.88
2023-04-11T01:21:18.979Z,72.91
2023-04-11T01:24:20.827Z,72.90
2023-04-11T01:27:22.835Z,72.87
2023-04-11T01:30:24.672Z,72.87
2023-04-11T01:33:26.823Z,72.93
2023-04-11T01:36:31.665Z,72.86
2023-04-11T01:39:33.348Z,72.92
2023-04-11T01:42:37.255Z,72.97
2023-04-11T01:45:39.814Z,72.92
2023-04-11T01:48:42.717Z,72.84
2023-04-11T01:51:45.537Z,72.77
2023-04-11T01:54:47.266Z,72.77
2023-04-11T01:57:48.946Z,72.82
2023-04-11T02:00:50.712Z,72.85
2023-04-11T02:03:54.535Z,72.87
2023-04-11T02:06:56.310Z,72.85
2023-04-11T02:09:58.548Z,72.89
2023-04-11T02:13:01.170Z,72.94
2023-04-11T02:16:11.033Z,73.06
2023-04-11T02:19:13.409Z,73.14
2023-04-11T02:22:15.626Z,73.28
2023-04-11T02:25:17.319Z,73.42
2023-04-11T02:28:19.061Z,73.36
2023-04-11T02:31:20.790Z,73.52
2023-04-11T02:34:22.606Z,73.63
2023-04-11T02:37:25.494Z,73.73
2023-04-11T02:40:27.283Z,73.82
2023-04-11T02:43:28.997Z,73.93
2023-04-11T02:46:30.763Z,74.02
2023-04-11T02:49:33.566Z,74.13
2023-04-11T02:52:36.967Z,74.24
2023-04-11T02:55:38.675Z,74.32
2023-04-11T02:58:41.388Z,74.38
2023-04-11T03:01:45.114Z,74.40
2023-04-11T03:04:46.948Z,74.40
2023-04-11T03:07:53.657Z,74.47
2023-04-11T03:10:55.420Z,74.43
2023-04-11T03:13:58.839Z,74.41
2023-04-11T03:17:00.567Z,74.40
2023-04-11T03:20:06.614Z,74.39
2023-04-11T03:23:09.016Z,74.37
2023-04-11T03:26:12.472Z,74.31
2023-04-11T03:29:14.194Z,74.25
2023-04-11T03:32:26.424Z,74.20
2023-04-11T03:35:28.494Z,74.24
2023-04-11T03:38:30.439Z,74.21
2023-04-11T03:41:32.207Z,74.14
2023-04-11T03:44:34.236Z,74.11
2023-04-11T03:47:37.879Z,74.10
2023-04-11T03:50:40.034Z,74.21
2023-04-11T03:53:41.823Z,74.31
2023-04-11T03:57:02.178Z,74.38
2023-04-11T04:00:05.659Z,74.47
2023-04-11T04:03:16.898Z,74.44
2023-04-11T04:06:19.671Z,74.58
2023-04-11T04:09:23.459Z,74.74
2023-04-11T04:12:28.835Z,74.84
2023-04-11T04:16:00.657Z,75.00
2023-04-11T04:19:04.120Z,75.03
2023-04-11T04:22:11.033Z,75.11
2023-04-11T04:25:16.264Z,75.04
2023-04-11T04:28:21.744Z,75.18
2023-04-11T04:31:29.190Z,75.27
2023-04-11T04:34:46.156Z,75.44
2023-04-11T04:37:49.421Z,75.56
2023-04-11T04:41:21.452Z,75.65
2023-04-11T04:44:28.788Z,75.78
2023-04-11T04:47:35.688Z,75.85
2023-04-11T04:50:37.823Z,75.97
2023-04-11T04:53:39.658Z,76.07
2023-04-11T04:56:43.396Z,76.15
2023-04-11T04:59:46.479Z,76.21
2023-04-11T05:02:49.299Z,76.36
2023-04-11T05:05:51.603Z,76.41
2023-04-11T05:08:56.569Z,76.56
2023-04-11T05:11:58.358Z,76.64
2023-04-11T05:15:00.176Z,76.84
2023-04-11T05:18:03.277Z,76.91
2023-04-11T05:21:07.381Z,77.01
2023-04-11T05:24:11.472Z,77.13
2023-04-11T05:27:13.641Z,77.27
2023-04-11T05:30:16.501Z,77.44
2023-04-11T05:33:18.682Z,77.65
2023-04-11T05:36:21.996Z,77.53
2023-04-11T05:39:23.809Z,77.69
2023-04-11T05:42:25.539Z,77.87
2023-04-11T05:45:27.441Z,77.94
2023-04-11T05:48:29.342Z,78.25
2023-04-11T05:51:31.083Z,78.30
2023-04-11T05:54:35.015Z,78.43
2023-04-11T05:57:36.703Z,78.55
2023-04-11T06:00:38.839Z,78.61
2023-04-11T06:03:52.570Z,78.72
2023-04-11T06:06:55.222Z,78.82
2023-04-11T06:09:56.782Z,78.92
2023-04-11T06:12:58.555Z,78.98
2023-04-11T06:16:00.810Z,79.10
2023-04-11T06:19:03.882Z,79.05
2023-04-11T06:22:05.677Z,79.11
2023-04-11T06:25:07.954Z,79.24
2023-04-11T06:28:09.593Z,79.39
2023-04-11T06:31:11.375Z,79.52
2023-04-11T06:34:12.976Z,79.47
2023-04-11T06:37:14.604Z,79.44
2023-04-11T06:40:16.644Z,79.36
2023-04-11T06:43:22.418Z,79.35
2023-04-11T06:46:24.267Z,79.45
2023-04-11T06:49:27.520Z,79.66
2023-04-11T06:52:29.897Z,79.75
2023-04-11T06:55:31.536Z,79.75
2023-04-11T06:58:33.179Z,79.69
2023-04-11T07:01:38.615Z,79.37
2023-04-11T07:04:40.756Z,79.07
2023-04-11T07:07:42.548Z,78.82
2023-04-11T07:10:44.190Z,78.68
2023-04-11T07:13:46.602Z,78.34
2023-04-11T07:16:48.440Z,78.16
2023-04-11T07:19:50.771Z,80.02
2023-04-11T07:22:53.641Z,80.73
2023-04-11T07:25:55.293Z,79.81
2023-04-11T07:28:56.930Z,79.21
2023-04-11T07:31:58.729Z,78.80
2023-04-11T07:35:00.623Z,78.62
2023-04-11T07:38:02.326Z,78.47
2023-04-11T07:41:05.043Z,77.82
2023-04-11T07:44:07.271Z,77.73
2023-04-11T07:47:08.849Z,77.26
2023-04-11T07:50:10.878Z,77.31
2023-04-11T07:53:13.205Z,76.76
2023-04-11T07:56:14.981Z,76.45
2023-04-11T07:59:16.708Z,76.57
2023-04-11T08:02:18.506Z,76.36
2023-04-11T08:05:22.492Z,76.18
2023-04-11T08:08:25.317Z,76.05
2023-04-11T08:11:26.933Z,75.94
2023-04-11T08:14:28.717Z,75.89
2023-04-11T08:17:37.271Z,75.88
2023-04-11T08:20:40.210Z,75.72
2023-04-11T08:23:41.869Z,75.66
2023-04-11T08:26:44.180Z,75.54
2023-04-11T08:29:45.924Z,75.48
2023-04-11T08:32:48.972Z,75.59
2023-04-11T08:35:51.148Z,75.35
2023-04-11T08:38:54.661Z,75.51
2023-04-11T08:41:56.332Z,75.30
2023-04-11T08:45:01.270Z,75.33
2023-04-11T08:48:03.429Z,75.07
2023-04-11T08:51:05.812Z,74.57
2023-04-11T08:54:08.969Z,73.71
2023-04-11T08:57:14.377Z,73.25
2023-04-11T09:00:18.202Z,72.96
2023-04-11T09:03:20.150Z,71.98
2023-04-11T09:06:22.225Z,71.65
2023-04-11T09:09:31.875Z,70.85
2023-04-11T09:12:33.745Z,70.38
2023-04-11T09:15:35.734Z,70.45
2023-04-11T09:18:39.715Z,70.80
2023-04-11T09:21:49.407Z,69.52
2023-04-11T09:25:03.586Z,68.52
2023-04-11T09:28:10.161Z,68.11
2023-04-11T09:31:13.052Z,67.74
2023-04-11T09:34:22.969Z,67.50
2023-04-11T09:37:24.970Z,67.35
2023-04-11T09:40:31.143Z,67.69
2023-04-11T09:43:51.789Z,67.24
2023-04-11T09:46:58.284Z,66.72
2023-04-11T09:50:00.450Z,66.30
2023-04-11T09:53:03.021Z,65.44
2023-04-11T09:56:11.008Z,64.71
2023-04-11T09:59:16.715Z,64.05
2023-04-11T10:02:18.558Z,63.55
2023-04-11T10:05:27.956Z,63.26
2023-04-11T10:08:35.189Z,62.64
2023-04-11T10:11:40.714Z,61.93
2023-04-11T10:14:43.476Z,61.78
2023-04-11T10:18:13.928Z,61.44
2023-04-11T10:21:30.375Z,60.68
2023-04-11T10:24:32.084Z,60.13
2023-04-11T10:27:49.204Z,59.94
2023-04-11T10:31:03.555Z,59.97
2023-04-11T10:34:14.457Z,59.96
2023-04-11T10:37:17.266Z,59.64
2023-04-11T10:40:20.082Z,59.34
2023-04-11T10:43:21.837Z,58.72
2023-04-11T10:46:25.211Z,58.43
2023-04-11T10:49:37.040Z,58.67
2023-04-11T10:52:39.142Z,58.00
2023-04-11T10:55:50.737Z,57.62
2023-04-11T10:58:52.800Z,57.43
2023-04-11T11:01:55.502Z,57.09
2023-04-11T11:04:58.474Z,57.24
2023-04-11T11:08:00.472Z,56.61
2023-04-11T11:11:09.869Z,56.35
2023-04-11T11:14:27.438Z,56.12
2023-04-11T11:17:29.154Z,55.89
2023-04-11T11:20:30.983Z,55.28
2023-04-11T11:23:34.961Z,55.14
2023-04-11T11:26:40.969Z,55.26
2023-04-11T11:29:43.143Z,54.92
2023-04-11T11:32:45.022Z,54.06
2023-04-11T11:35:57.022Z,53.50
2023-04-11T11:38:59.098Z,53.66
2023-04-11T11:42:01.277Z,53.54
2023-04-11T11:45:13.294Z,52.22
2023-04-11T11:48:24.440Z,52.73
2023-04-11T11:51:26.736Z,51.55
2023-04-11T11:54:28.416Z,50.26
2023-04-11T11:57:30.049Z,49.44
2023-04-11T12:00:40.025Z,49.27
2023-04-11T12:03:41.973Z,48.81
2023-04-11T12:06:45.945Z,48.64
2023-04-11T12:09:48.658Z,49.28
2023-04-11T12:12:53.582Z,48.54
2023-04-11T12:15:57.972Z,48.34
2023-04-11T12:19:02.267Z,47.84
2023-04-11T12:22:04.125Z,47.61
2023-04-11T12:25:07.936Z,47.54
2023-04-11T12:28:12.476Z,47.14
2023-04-11T12:31:14.245Z,47.20
2023-04-11T12:34:20.290Z,47.07
2023-04-11T12:37:22.943Z,47.28
2023-04-11T12:40:25.110Z,47.44
2023-04-11T12:43:27.020Z,47.77
2023-04-11T12:46:29.418Z,48.25
2023-04-11T12:49:31.259Z,47.94
2023-04-11T12:52:33.679Z,47.96
2023-04-11T12:55:35.454Z,48.13
2023-04-11T12:58:37.202Z,48.48
2023-04-11T13:01:39.074Z,48.36
2023-04-11T13:04:41.116Z,47.94
2023-04-11T13:07:43.986Z,48.01
2023-04-11T13:10:45.682Z,47.44
2023-04-11T13:13:49.179Z,47.30
2023-04-11T13:16:51.058Z,46.98
2023-04-11T13:19:52.778Z,47.11
2023-04-11T13:22:54.420Z,47.36
2023-04-11T13:25:56.076Z,47.58
2023-04-11T13:28:58.115Z,47.23
2023-04-11T13:32:00.287Z,47.23
2023-04-11T13:35:03.240Z,47.74
2023-04-11T13:38:05.271Z,47.93
2023-04-11T13:41:07.007Z,48.06
2023-04-11T13:44:08.588Z,48.32
2023-04-11T13:47:10.306Z,48.35
2023-04-11T13:50:12.083Z,48.39
2023-04-11T13:53:13.864Z,48.16
2023-04-11T13:56:15.507Z,48.37
2023-04-11T13:59:17.329Z,48.66
2023-04-11T14:02:19.093Z,48.62
2023-04-11T14:05:21.408Z,48.86
2023-04-11T14:08:23.108Z,49.08
2023-04-11T14:11:24.937Z,49.48
2023-04-11T14:14:26.604Z,49.79
2023-04-11T14:17:29.269Z,49.93
2023-04-11T14:20:30.871Z,50.20
2023-04-11T14:23:32.623Z,50.63
2023-04-11T14:26:34.275Z,51.03
2023-04-11T14:29:36.971Z,51.27
2023-04-11T14:32:39.434Z,51.56
2023-04-11T14:35:42.173Z,51.70
2023-04-11T14:38:43.786Z,51.78
2023-04-11T14:41:47.041Z,51.73
2023-04-11T14:44:49.697Z,51.81
2023-04-11T14:47:51.783Z,51.95
2023-04-11T14:50:54.753Z,52.03
2023-04-11T14:53:56.954Z,52.18
2023-04-11T14:56:59.050Z,52.42
2023-04-11T15:00:01.133Z,52.58
2023-04-11T15:03:03.627Z,52.88
2023-04-11T15:06:06.197Z,53.43
2023-04-11T15:09:08.836Z,53.75
2023-04-11T15:12:10.668Z,54.20
2023-04-11T15:15:13.108Z,54.66
2023-04-11T15:18:32.801Z,55.50
2023-04-11T15:21:35.166Z,56.36
2023-04-11T15:24:37.153Z,57.22
2023-04-11T15:27:39.130Z,58.12
2023-04-11T15:30:49.885Z,58.49
2023-04-11T15:33:54.951Z,58.97
2023-04-11T15:36:57.170Z,59.51
2023-04-11T15:39:59.173Z,60.13
2023-04-11T15:43:01.431Z,60.81
2023-04-11T15:46:03.173Z,61.25
2023-04-11T15:49:05.237Z,60.69
2023-04-11T15:52:07.132Z,61.85
2023-04-11T15:55:09.760Z,62.43
2023-04-11T15:58:11.603Z,63.19
2023-04-11T16:01:23.546Z,62.51
2023-04-11T16:04:26.721Z,63.40
2023-04-11T16:07:30.355Z,63.78
2023-04-11T16:10:33.966Z,64.28
2023-04-11T16:13:37.091Z,64.65
2023-04-11T16:16:39.096Z,64.90
2023-04-11T16:19:41.824Z,65.18
2023-04-11T16:22:45.804Z,65.43
2023-04-11T16:25:47.532Z,65.81
2023-04-11T16:28:52.150Z,66.08
2023-04-11T16:31:54.853Z,66.43
2023-04-11T16:34:57.526Z,66.63
2023-04-11T16:38:00.453Z,66.84
2023-04-11T16:41:03.122Z,67.10
2023-04-11T16:44:10.720Z,67.45
2023-04-11T16:47:12.803Z,67.77
2023-04-11T16:50:15.298Z,67.86
2023-04-11T16:53:17.940Z,67.91
2023-04-11T16:56:19.673Z,67.38
2023-04-11T16:59:22.404Z,67.06
2023-04-11T17:02:24.657Z,67.66
2023-04-11T17:05:26.940Z,68.00
2023-04-11T17:08:29.399Z,68.09
2023-04-11T17:11:31.866Z,68.27
2023-04-11T17:14:36.047Z,68.54
2023-04-11T17:17:38.028Z,68.70
2023-04-11T17:20:40.971Z,68.87
2023-04-11T17:23:43.706Z,68.97
2023-04-11T17:26:45.891Z,69.35
2023-04-11T17:29:47.597Z,69.34
2023-04-11T17:32:49.400Z,69.39
2023-04-11T17:35:52.325Z,69.51
2023-04-11T17:38:54.282Z,69.62
2023-04-11T17:41:56.854Z,69.63
2023-04-11T17:45:03.767Z,69.71
2023-04-11T17:48:12.261Z,69.80
2023-04-11T17:51:13.961Z,69.85
2023-04-11T17:54:15.850Z,69.97
2023-04-11T17:57:18.396Z,70.01
2023-04-11T18:00:25.663Z,70.11
2023-04-11T18:03:27.715Z,70.23
2023-04-11T18:06:33.475Z,70.38
2023-04-11T18:09:35.216Z,70.46
2023-04-11T18:12:38.388Z,70.67
2023-04-11T18:15:40.422Z,70.74
2023-04-11T18:18:42.217Z,70.76
2023-04-11T18:21:44.096Z,70.82
2023-04-11T18:24:45.811Z,70.87
2023-04-11T18:27:47.591Z,70.95
2023-04-11T18:30:49.526Z,70.98
2023-04-11T18:33:51.407Z,71.03
2023-04-11T18:36:53.172Z,71.13
2023-04-11T18:39:55.123Z,71.16
2023-04-11T18:42:58.470Z,71.19
2023-04-11T18:46:01.452Z,71.20
2023-04-11T18:49:04.056Z,71.31
2023-04-11T18:52:07.274Z,71.42
2023-04-11T18:55:09.782Z,71.41
2023-04-11T18:58:13.596Z,71.54
2023-04-11T19:01:22.418Z,71.56
2023-04-11T19:04:24.728Z,71.59
2023-04-11T19:07:26.839Z,71.62
2023-04-11T19:10:28.822Z,71.68
2023-04-11T19:13:31.013Z,71.39
2023-04-11T19:16:33.613Z,71.46
2023-04-11T19:19:35.723Z,71.61
2023-04-11T19:22:40.069Z,71.56
2023-04-11T19:25:42.269Z,71.62
2023-04-11T19:28:44.372Z,71.70
2023-04-11T19:31:46.395Z,71.46
2023-04-11T19:34:48.994Z,71.62
2023-04-11T19:37:50.788Z,71.78
2023-04-11T19:40:52.818Z,71.72
2023-04-11T19:43:55.511Z,71.82
2023-04-11T19:46:57.423Z,71.79
2023-04-11T19:49:59.931Z,71.86
2023-04-11T19:53:01.637Z,71.89
2023-04-11T19:56:05.759Z,71.99
2023-04-11T19:59:07.415Z,71.94
2023-04-11T20:02:09.198Z,72.02
2023-04-11T20:05:13.135Z,72.05
2023-04-11T20:08:14.876Z,72.07
2023-04-11T20:11:16.701Z,72.09
2023-04-11T20:14:18.450Z,72.09
2023-04-11T20:17:20.471Z,71.98
2023-04-11T20:20:26.321Z,72.03
2023-04-11T20:23:30.189Z,72.14
2023-04-11T20:26:33.033Z,72.05
2023-04-11T20:29:37.706Z,71.98
2023-04-11T20:32:40.455Z,72.09
2023-04-11T20:35:42.889Z,72.15
2023-04-11T20:38:44.575Z,72.07
2023-04-11T20:41:46.302Z,71.88
2023-04-11T20:44:48.889Z,71.89
2023-04-11T20:47:52.526Z,71.94
2023-04-11T20:50:56.093Z,71.97
2023-04-11T20:53:58.569Z,72.03
2023-04-11T20:57:00.750Z,72.10
2023-04-11T21:00:13.301Z,72.16
2023-04-11T21:03:15.036Z,72.05
2023-04-11T21:06:17.251Z,71.90
2023-04-11T21:09:19.377Z,71.91
2023-04-11T21:12:21.258Z,71.91
2023-04-11T21:15:23.061Z,71.94
2023-04-11T21:18:24.948Z,71.96
2023-04-11T21:21:27.615Z,71.92
2023-04-11T21:24:33.812Z,71.92
2023-04-11T21:27:35.557Z,71.81
2023-04-11T21:30:39.001Z,71.82
2023-04-11T21:33:41.162Z,71.84
2023-04-11T21:36:42.946Z,71.84
2023-04-11T21:39:44.870Z,71.83
2023-04-11T21:42:46.621Z,71.82
2023-04-11T21:45:48.413Z,71.79
2023-04-11T21:48:51.463Z,71.79
2023-04-11T21:51:53.242Z,71.80
2023-04-11T21:54:55.167Z,71.82
2023-04-11T21:57:57.034Z,71.77
2023-04-11T22:21:50.350Z,71.54
2023-04-11T22:29:29.904Z,71.57
2023-04-11T22:37:00.904Z,71.43
2023-04-11T22:40:21.571Z,71.44
2023-04-11T23:08:22.639Z,71.39
2023-04-11T23:11:24.424Z,71.42
2023-04-11T23:14:30.471Z,71.40
2023-04-11T23:17:32.549Z,71.36
2023-04-11T23:20:36.420Z,71.39
2023-04-11T23:23:38.236Z,71.47
2023-04-11T23:26:40.520Z,71.45
2023-04-11T23:29:48.327Z,71.60
2023-04-11T23:32:50.541Z,71.61
2023-04-11T23:35:52.449Z,71.61
2023-04-11T23:38:54.503Z,71.64
2023-04-11T23:41:56.532Z,71.71
2023-04-11T23:44:58.225Z,71.82
2023-04-11T23:48:00.009Z,71.83
2023-04-11T23:51:01.899Z,71.85
2023-04-11T23:54:04.493Z,71.89
2023-04-11T23:57:06.507Z,71.95
